Latest Weather Observations for Yarrawonga

IDN60801

Issued at 7:05 pm EDT Sunday 26 October 2014 (issued every 30 minutes, with the page automatically refreshed every 10 minutes)

About weather observations | Map of weather stations | Latest weather observations for NSW | Other Formats
Station Details ID: 081124 Name: YARRAWONGA Lat: -36.03 Lon: 146.03 Height: 128.9 m
Data from the previous 72 hours. | See also: Recent months at Yarrawonga
Date/Time
EDT
Temp
°C
App
Temp
°C
Dew
Point
Rel
Hum
%
Delta-T
°C
Wind Press
QNH
hPa
Press
MSL
hPa
Rain
since 9 am
mm
Dir
 
Spd
km/h
Gust
km/h
Spd
kts
Gust
kts
26/07:00pm 24.1 22.5 8.1 36 8.5 NW 6 9 3 5 1011.1 1011.0 0.0
26/06:30pm 24.7 22.6 8.2 35 8.9 NW 9 13 5 7 1011.1 1011.0 0.0
26/06:00pm 25.4 23.2 8.0 33 9.3 W 9 11 5 6 1011.3 1011.2 0.0
26/05:30pm 25.9 22.7 7.0 30 10.0 W 13 19 7 10 1011.0 1010.9 0.0
26/05:00pm 26.8 22.5 6.8 28 10.6 WSW 19 24 10 13 1011.2 1011.1 0.0
26/04:30pm 26.2 21.6 8.2 32 9.7 W 22 33 12 18 1011.5 1011.4 0.0
26/04:00pm 27.2 22.5 7.6 29 10.6 W 22 32 12 17 1011.3 1011.2 0.0
26/03:30pm 27.5 22.0 7.4 28 10.8 W 26 37 14 20 1011.5 1011.4 0.0
26/03:00pm 28.0 23.9 8.8 30 10.6 W 20 33 11 18 1011.5 1011.4 0.0
26/02:30pm 28.1 23.8 9.4 31 10.4 W 22 30 12 16 1011.6 1011.5 0.0
26/02:00pm 27.7 24.3 9.0 31 10.3 WNW 17 24 9 13 1011.4 1011.3 0.0
26/01:30pm 27.1 24.3 8.5 31 10.2 WNW 13 20 7 11 1011.1 1011.0 0.0
26/01:00pm 28.0 24.9 8.8 30 10.6 W 15 22 8 12 1011.7 1011.6 0.0
26/12:30pm 27.6 24.0 8.5 30 10.5 WSW 17 26 9 14 1011.5 1011.4 0.0
26/12:00pm 25.6 23.1 9.8 37 8.8 W 13 20 7 11 1012.0 1011.9 0.0
26/11:30am 24.4 21.7 10.3 41 7.8 W 15 22 8 12 1012.3 1012.2 0.0
26/11:00am 23.5 21.2 10.6 44 7.2 WNW 13 22 7 12 1012.4 1012.3 0.0
26/10:30am 22.0 20.3 11.1 50 6.1 W 11 19 6 10 1012.5 1012.4 0.0
26/10:00am 21.0 19.9 11.9 56 5.1 W 9 15 5 8 1012.5 1012.4 0.0
26/09:30am 18.7 18.0 11.5 63 4.0 W 6 11 3 6 1012.5 1012.4 0.0
26/09:00am 16.6 15.9 11.3 71 2.9 WSW 6 9 3 5 1012.2 1012.1 0.0
26/08:30am 14.9 13.3 11.5 80 1.8 SW 11 13 6 7 1012.2 1012.1 0.0
26/08:00am 13.2 11.1 11.1 87 1.1 WSW 13 17 7 9 1012.1 1012.0 0.0
26/07:30am 11.7 10.3 10.9 95 0.4 WSW 9 13 5 7 1011.6 1011.5 0.0
26/07:00am 10.7 9.5 10.4 98 0.2 WSW 7 9 4 5 1011.2 1011.1 0.0
26/06:30am 10.2 8.5 9.9 98 0.2 WSW 9 11 5 6 1010.9 1010.8 0.0
26/06:00am 10.2 8.1 9.9 98 0.2 W 11 13 6 7 1010.7 1010.6 0.0
26/05:30am 10.3 8.6 10.0 98 0.2 WSW 9 11 5 6 1010.5 1010.4 0.0
26/05:00am 10.9 9.0 10.4 97 0.3 WSW 11 13 6 7 1010.3 1010.2 0.0
26/04:30am 11.8 10.0 11.0 95 0.4 W 11 15 6 8 1010.2 1010.1 0.0
26/04:00am 11.9 9.7 10.8 93 0.6 W 13 17 7 9 1010.1 1010.0 0.0
26/03:30am 12.5 10.0 11.2 92 0.7 W 15 17 8 9 1010.4 1010.3 0.0
26/03:00am 11.9 10.5 11.0 94 0.5 WSW 9 11 5 6 1010.3 1010.2 0.0
26/02:30am 11.9 10.8 10.6 92 0.7 WSW 7 7 4 4 1010.3 1010.2 0.0
26/02:00am 13.6 12.4 11.5 87 1.1 WSW 9 13 5 7 1010.7 1010.6 0.0
26/01:30am 14.4 12.5 11.9 85 1.4 WSW 13 17 7 9 1010.8 1010.7 0.0
26/01:00am 15.4 13.2 12.2 81 1.8 WSW 15 19 8 10 1011.0 1010.9 0.0
26/12:30am 16.4 14.0 12.6 78 2.1 WSW 17 19 9 10 1011.1 1011.0 0.0
26/12:00am 17.8 15.8 12.7 72 2.9 WSW 15 20 8 11 1011.0 1010.9 0.0
 
Date/Time
EDT
Temp
°C
App
Temp
°C
Dew
Point
Rel
Hum
%
Delta-T
°C
Wind Press
QNH
hPa
Press
MSL
hPa
Rain
since 9 am
mm
Dir
 
Spd
km/h
Gust
km/h
Spd
kts
Gust
kts
25/11:30pm 18.8 17.2 12.8 68 3.4 WSW 13 15 7 8 1010.9 1010.8 0.0
25/11:00pm 20.3 19.1 12.8 62 4.3 SSW 11 15 6 8 1010.9 1010.8 0.0
25/10:30pm 20.2 18.5 12.4 61 4.4 SSW 13 15 7 8 1010.8 1010.7 0.0
25/10:00pm 21.3 19.4 11.9 55 5.3 SSW 13 15 7 8 1011.0 1010.9 0.0
25/09:30pm 22.5 20.3 10.9 48 6.5 S 13 17 7 9 1010.8 1010.7 0.0
25/09:00pm 23.1 20.4 10.5 45 7.0 SW 15 19 8 10 1010.8 1010.7 0.0
25/08:30pm 23.6 20.5 10.3 43 7.4 SW 17 22 9 12 1010.3 1010.2 0.0
25/08:00pm 23.4 21.6 10.8 45 7.0 SSW 11 11 6 6 1009.8 1009.7 0.0
25/07:30pm 26.3 24.0 10.5 37 8.9 SSW 13 17 7 9 1009.4 1009.3 0.0
25/07:00pm 28.6 27.2 10.8 33 10.2 S 9 11 5 6 1008.8 1008.7 0.0
25/06:30pm 30.5 29.5 11.0 30 11.3 SE 7 11 4 6 1008.6 1008.5 0.0
25/06:00pm 32.1 31.0 10.8 27 12.4 SE 7 9 4 5 1008.7 1008.6 0.0
25/05:30pm 33.1 31.1 7.1 20 14.3 ESE 7 9 4 5 1008.9 1008.8 0.0
25/05:00pm 32.5 31.2 9.3 24 13.2 SSE 6 7 3 4 1009.4 1009.3 0.0
25/04:30pm 31.8 30.0 9.3 25 12.8 S 9 13 5 7 1009.8 1009.7 0.0
25/04:00pm 32.4 31.6 6.6 20 14.1 CALM 0 4 0 2 1010.3 1010.2 0.0
25/03:30pm 33.5 31.6 6.7 19 14.7 NNW 6 9 3 5 1010.8 1010.7 0.0
25/03:00pm 32.8 30.6 6.2 19 14.4 N 7 15 4 8 1011.2 1011.1 0.0
25/02:30pm 34.8 32.8 7.0 18 15.4 NNW 7 15 4 8 1011.8 1011.7 0.0
25/02:00pm 32.1 29.5 6.3 20 14.0 ENE 9 17 5 9 1012.2 1012.1 0.0
25/01:30pm 32.9 30.5 7.0 20 14.2 NNE 9 15 5 8 1012.6 1012.5 0.0
25/01:00pm 32.5 30.6 7.4 21 13.8 N 7 15 4 8 1013.0 1012.9 0.0
25/12:30pm 30.6 28.9 8.3 25 12.4 NE 7 17 4 9 1013.6 1013.5 0.0
25/12:00pm 29.9 28.2 8.3 26 11.9 NNE 7 13 4 7 1014.2 1014.1 0.0
25/11:30am 28.7 27.1 8.9 29 11.0 NE 7 11 4 6 1014.6 1014.5 0.0
25/11:00am 27.7 26.2 9.0 31 10.3 NNE 7 11 4 6 1015.0 1014.9 0.0
25/10:30am 25.9 24.3 8.8 34 9.3 NE 7 11 4 6 1015.2 1015.1 0.0
25/10:00am 23.8 22.4 9.4 40 7.8 NE 7 11 4 6 1015.3 1015.2 0.0
25/09:30am 22.2 21.0 9.7 45 6.8 NE 6 9 3 5 1015.5 1015.4 0.0
25/09:00am 20.4 18.9 10.5 53 5.4 ENE 9 13 5 7 1015.5 1015.4 0.0
25/08:30am 19.1 18.0 10.6 58 4.6 ENE 7 13 4 7 1015.5 1015.4 0.0
25/08:00am 17.3 16.7 11.8 70 3.0 E 6 9 3 5 1015.3 1015.2 0.0
25/07:30am 15.7 15.9 10.5 71 2.8 CALM 0 0 0 0 1015.2 1015.1 0.0
25/07:00am 11.5 11.1 9.8 89 0.9 S 2 4 1 2 1014.8 1014.7 0.0
25/06:30am 11.3 9.9 8.9 85 1.2 SE 6 6 3 3 1014.2 1014.1 0.0
25/06:00am 11.7 10.4 9.1 84 1.3 SE 6 7 3 4 1014.0 1013.9 0.0
25/05:30am 10.9 10.0 7.8 81 1.5 E 2 4 1 2 1013.8 1013.7 0.0
25/05:00am 11.1 10.8 8.8 86 1.1 CALM 0 2 0 1 1013.5 1013.4 0.0
25/04:30am 11.6 9.9 8.3 80 1.6 ESE 7 9 4 5 1013.3 1013.2 0.0
25/04:00am 12.0 10.5 8.5 79 1.7 SE 6 7 3 4 1013.2 1013.1 0.0
25/03:30am 12.4 11.9 9.2 81 1.6 SW 2 4 1 2 1013.2 1013.1 0.0
25/03:00am 12.3 11.5 9.5 83 1.4 SW 4 4 2 2 1013.3 1013.2 0.0
25/02:30am 12.6 12.1 9.2 80 1.7 SSE 2 4 1 2 1013.4 1013.3 0.0
25/02:00am 12.5 12.0 8.0 74 2.2 CALM 0 0 0 0 1013.6 1013.5 0.0
25/01:30am 15.0 13.4 8.7 66 3.2 W 7 9 4 5 1013.6 1013.5 0.0
25/01:00am 12.9 11.8 9.9 82 1.5 WSW 6 7 3 4 1013.9 1013.8 0.0
25/12:30am 13.4 13.1 10.0 80 1.8 N 2 4 1 2 1014.0 1013.9 0.0
25/12:00am 15.4 14.1 10.0 70 2.8 N 7 7 4 4 1013.7 1013.6 0.0
 
Date/Time
EDT
Temp
°C
App
Temp
°C
Dew
Point
Rel
Hum
%
Delta-T
°C
Wind Press
QNH
hPa
Press
MSL
hPa
Rain
since 9 am
mm
Dir
 
Spd
km/h
Gust
km/h
Spd
kts
Gust
kts
24/11:30pm 14.4 13.5 10.6 78 2.0 N 6 6 3 3 1013.8 1013.7 0.0
24/11:00pm 16.1 15.3 9.5 65 3.4 N 4 4 2 2 1013.8 1013.7 0.0
24/10:30pm 16.0 15.0 9.0 63 3.6 N 4 4 2 2 1013.6 1013.5 0.0
24/10:00pm 17.4 16.6 9.6 60 4.1 NNE 4 6 2 3 1013.6 1013.5 0.0
24/09:30pm 17.3 17.1 9.0 58 4.3 CALM 0 0 0 0 1013.4 1013.3 0.0
24/09:00pm 19.5 18.6 7.6 46 6.1 WNW 2 4 1 2 1013.3 1013.2 0.0
24/08:30pm 20.3 18.8 8.6 47 6.2 W 6 7 3 4 1013.1 1013.0 0.0
24/08:00pm 21.9 20.4 8.4 42 7.2 W 6 7 3 4 1012.6 1012.5 0.0
24/07:30pm 25.2 23.6 8.2 34 9.1 W 6 6 3 3 1012.1 1012.0 0.0
24/07:00pm 27.6 25.8 8.0 29 10.7 W 7 9 4 5 1011.8 1011.7 0.0
24/06:30pm 28.5 25.0 7.1 26 11.5 W 15 20 8 11 1011.6 1011.5 0.0
24/06:00pm 28.9 24.3 6.3 24 12.0 W 20 32 11 17 1011.5 1011.4 0.0
24/05:30pm 29.9 25.2 5.9 22 12.7 W 20 26 11 14 1011.3 1011.2 0.0
24/05:00pm 29.7 25.8 10.8 31 10.9 W 22 30 12 16 1011.3 1011.2 0.0
24/04:30pm 30.0 25.1 8.4 26 12.0 WSW 24 33 13 18 1011.1 1011.0 0.0
24/04:00pm 29.3 25.9 10.4 31 10.8 W 19 26 10 14 1011.2 1011.1 0.0
24/03:30pm 29.2 25.2 10.3 31 10.8 W 22 32 12 17 1011.4 1011.3 0.0
24/03:00pm 29.4 25.9 11.0 32 10.6 W 20 28 11 15 1011.4 1011.3 0.0
24/02:30pm 30.5 27.0 11.0 30 11.3 W 20 30 11 16 1011.6 1011.5 0.0
24/02:00pm 30.5 26.3 11.0 30 11.3 W 24 32 13 17 1011.8 1011.7 0.0
24/01:30pm 32.5 28.9 9.9 25 13.0 W 19 32 10 17 1011.7 1011.6 0.0
24/01:00pm 32.4 29.6 9.9 25 12.9 NW 15 20 8 11 1011.6 1011.5 0.0
24/12:30pm 31.9 28.0 8.8 24 13.0 WNW 19 28 10 15 1012.0 1011.9 0.0
24/12:00pm 32.0 29.2 10.1 26 12.6 NNW 15 24 8 13 1012.1 1012.0 0.0
24/11:30am 31.1 29.6 10.4 28 11.9 N 9 17 5 9 1012.3 1012.2 0.0
24/11:00am 29.9 27.0 10.9 31 11.0 N 17 24 9 13 1012.6 1012.5 0.0
24/10:30am 28.6 25.3 10.8 33 10.2 N 19 28 10 15 1012.9 1012.8 0.0
24/10:00am 26.8 23.3 10.9 37 9.0 N 20 28 11 15 1013.0 1012.9 0.0
24/09:30am 25.9 22.2 11.6 40 8.2 N 22 32 12 17 1013.1 1013.0 0.0
24/09:00am 24.7 20.6 11.6 44 7.5 NNE 24 33 13 18 1013.4 1013.3 0.0
24/08:30am 23.7 20.4 11.7 47 6.8 NNE 20 28 11 15 1013.5 1013.4 0.0
24/08:00am 22.2 19.2 11.9 52 5.8 NNE 19 26 10 14 1013.5 1013.4 0.0
24/07:30am 21.3 19.1 12.2 56 5.1 NNE 15 24 8 13 1013.3 1013.2 0.0
24/07:00am 20.1 18.2 11.8 59 4.6 NE 13 19 7 10 1013.1 1013.0 0.0
24/06:30am 19.4 17.5 11.9 62 4.2 NE 13 19 7 10 1012.8 1012.7 0.0
24/06:00am 18.4 17.1 12.4 68 3.4 NE 11 17 6 9 1012.5 1012.4 0.0
24/05:30am 18.0 16.7 12.5 70 3.1 NE 11 17 6 9 1012.4 1012.3 0.0
24/05:00am 18.5 17.5 12.3 67 3.5 NE 9 15 5 8 1012.4 1012.3 0.0
24/04:30am 19.2 17.4 12.2 64 3.9 NE 13 17 7 9 1012.3 1012.2 0.0
24/04:00am 20.0 17.5 12.3 61 4.3 NE 17 24 9 13 1012.0 1011.9 0.0
24/03:30am 20.5 17.9 12.0 58 4.8 ENE 17 22 9 12 1012.2 1012.1 0.0
24/03:00am 20.8 17.7 11.7 56 5.1 ENE 19 24 10 13 1012.4 1012.3 0.0
24/02:30am 20.9 18.2 11.8 56 5.1 ENE 17 22 9 12 1012.4 1012.3 0.0
24/02:00am 21.5 18.8 11.8 54 5.5 ENE 17 24 9 13 1012.5 1012.4 0.0
24/01:30am 21.4 18.3 11.7 54 5.4 ENE 19 22 10 12 1012.8 1012.7 0.0
24/01:00am 22.0 18.9 11.7 52 5.8 ENE 19 22 10 12 1013.1 1013.0 0.0
24/12:30am 22.6 19.4 11.4 49 6.3 E 19 22 10 12 1012.9 1012.8 0.0
24/12:00am 23.4 20.1 11.5 47 6.7 E 20 28 11 15 1012.7 1012.6 0.0
 
Date/Time
EDT
Temp
°C
App
Temp
°C
Dew
Point
Rel
Hum
%
Delta-T
°C
Wind Press
QNH
hPa
Press
MSL
hPa
Rain
since 9 am
mm
Dir
 
Spd
km/h
Gust
km/h
Spd
kts
Gust
kts
23/11:30pm 23.4 20.8 12.1 49 6.4 E 17 24 9 13 1012.6 1012.5 0.0
23/11:00pm 21.3 20.2 13.0 59 4.8 ESE 11 15 6 8 1012.4 1012.3 0.0
23/10:30pm 21.6 20.1 13.0 58 4.9 ESE 13 17 7 9 1012.2 1012.1 0.0
23/10:00pm 22.4 21.2 12.9 55 5.5 ESE 11 15 6 8 1012.1 1012.0 0.0
23/09:30pm 22.8 21.0 13.3 55 5.5 ESE 15 17 8 9 1012.0 1011.9 0.0
23/09:00pm 22.8 21.5 13.8 57 5.3 ESE 13 15 7 8 1011.7 1011.6 0.0
23/08:30pm 23.7 23.1 13.6 53 5.9 ESE 9 11 5 6 1011.4 1011.3 0.0
23/08:00pm 25.7 24.9 13.9 48 7.0 ESE 11 13 6 7 1011.2 1011.1 0.0
23/07:30pm 27.9 27.2 14.2 43 8.3 ESE 11 13 6 7 1011.0 1010.9 0.0

Other Formats:

Comma delimited format used in spreadsheet applications
http://www.bom.gov.au/fwo/IDN60801/IDN60801.94862.axf

JavaScript Object Notation format (JSON) in row-major order
http://www.bom.gov.au/fwo/IDN60801/IDN60801.94862.json